Impacts TAF Board
For situational awareness. Not to be used for flight planning purposes.
IDs:

KBOS - Boston/Logan Intl, MA, US

Issued at 2058 UTC 01 Feb 2023
Updated at 2225 UTC 01 Feb 2023
Potential Impact None Slight Moderate High
Time<<02/11Z 02/12Z 02/13Z 02/14Z 02/15Z 02/16Z 02/17Z 02/18Z 02/19Z 02/20Z 02/21Z 02/22Z 02/23Z>>
Type PRVL PRVL PRVL PRVL PRVL PRVL PRVL PRVL PRVL PRVL PRVL PRVL PRVL
VIS >6 >6 >6 >6 >6 >6 >6 >6 >6 >6 >6 >6 >6
CIG -- -- 150 150 150 150 150 -- -- -- -- -- --
Cover SKC SKC BKN BKN BKN BKN BKN SCT SCT SCT SCT SCT SCT
FltCat VFR VFR VFR VFR VFR VFR VFR VFR VFR VFR VFR VFR VFR
WX -- -- -- -- -- -- -- -- -- -- -- -- --
WDir 290 290 250 250 250 230 230 220 220 220 220 220 220
WSpd 6 6 7 7 7 9 9 11 11 11 11 11 11
WGst -- -- -- -- -- -- -- 19 19 19 19 19 19
WSHgt -- -- -- -- -- -- -- -- -- -- -- -- --
WSDir -- -- -- -- -- -- -- -- -- -- -- -- --
WSSpd -- -- -- -- -- -- -- -- -- -- -- -- --

NOTE: LAMP data beyond the time of the TAF data is denoted as LAMP in Type and colored magenta.

Raw TAF
KBOS 012058Z 0121/0224 12004KT P6SM FEW045
  FM012230 29006KT P6SM SKC
  FM021300 25007KT P6SM BKN150
  FM021600 23009KT P6SM BKN150
  FM021800 22011G19KT P6SM SCT150


METAR Board
Radar Display
Forecast Discussion

For situational awareness. Not to be used for flight planning purposes.